sensor_id;sensor_type;location;lat;lon;timestamp;temperature;humidity
65374;SHT31;52070;53.760;9.678;2023-01-09T00:02:02;4.98;93.23
65374;SHT31;52070;53.760;9.678;2023-01-09T00:04:29;4.91;93.20
65374;SHT31;52070;53.760;9.678;2023-01-09T00:06:56;4.95;93.22
65374;SHT31;52070;53.760;9.678;2023-01-09T00:09:23;4.92;93.28
65374;SHT31;52070;53.760;9.678;2023-01-09T00:11:50;4.82;93.24
65374;SHT31;52070;53.760;9.678;2023-01-09T00:14:19;4.75;93.16
65374;SHT31;52070;53.760;9.678;2023-01-09T00:16:47;4.65;93.12
65374;SHT31;52070;53.760;9.678;2023-01-09T00:19:15;4.58;93.11
65374;SHT31;52070;53.760;9.678;2023-01-09T00:21:42;4.53;93.16
65374;SHT31;52070;53.760;9.678;2023-01-09T00:24:09;4.45;93.15
65374;SHT31;52070;53.760;9.678;2023-01-09T00:26:36;4.38;93.15
65374;SHT31;52070;53.760;9.678;2023-01-09T00:29:03;4.30;93.19
65374;SHT31;52070;53.760;9.678;2023-01-09T00:31:30;4.25;93.25
65374;SHT31;52070;53.760;9.678;2023-01-09T00:33:58;4.25;93.29
65374;SHT31;52070;53.760;9.678;2023-01-09T00:36:27;4.24;93.43
65374;SHT31;52070;53.760;9.678;2023-01-09T00:38:54;4.30;93.51
65374;SHT31;52070;53.760;9.678;2023-01-09T00:41:24;4.36;93.67
65374;SHT31;52070;53.760;9.678;2023-01-09T00:43:53;4.58;93.87
65374;SHT31;52070;53.760;9.678;2023-01-09T00:46:24;4.72;94.08
65374;SHT31;52070;53.760;9.678;2023-01-09T00:48:52;4.81;94.19
65374;SHT31;52070;53.760;9.678;2023-01-09T00:51:19;4.78;94.12
65374;SHT31;52070;53.760;9.678;2023-01-09T00:53:49;4.86;94.07
65374;SHT31;52070;53.760;9.678;2023-01-09T00:56:18;4.88;94.05
65374;SHT31;52070;53.760;9.678;2023-01-09T00:58:46;4.75;93.92
65374;SHT31;52070;53.760;9.678;2023-01-09T01:01:14;4.67;93.74
65374;SHT31;52070;53.760;9.678;2023-01-09T01:03:41;4.60;93.68
65374;SHT31;52070;53.760;9.678;2023-01-09T01:06:08;4.60;93.70
65374;SHT31;52070;53.760;9.678;2023-01-09T01:08:54;4.74;93.83
65374;SHT31;52070;53.760;9.678;2023-01-09T01:11:22;4.81;93.96
65374;SHT31;52070;53.760;9.678;2023-01-09T01:13:49;4.78;94.00
65374;SHT31;52070;53.760;9.678;2023-01-09T01:16:16;4.79;94.01
65374;SHT31;52070;53.760;9.678;2023-01-09T01:18:44;4.75;94.01
65374;SHT31;52070;53.760;9.678;2023-01-09T01:21:12;4.71;93.97
65374;SHT31;52070;53.760;9.678;2023-01-09T01:23:39;4.65;93.95
65374;SHT31;52070;53.760;9.678;2023-01-09T01:26:10;4.62;93.96
65374;SHT31;52070;53.760;9.678;2023-01-09T01:28:37;4.68;93.96
65374;SHT31;52070;53.760;9.678;2023-01-09T01:31:05;4.71;94.00
65374;SHT31;52070;53.760;9.678;2023-01-09T01:33:33;4.68;94.05
65374;SHT31;52070;53.760;9.678;2023-01-09T01:36:02;4.62;94.07
65374;SHT31;52070;53.760;9.678;2023-01-09T01:38:29;4.60;94.04
65374;SHT31;52070;53.760;9.678;2023-01-09T01:40:56;4.55;94.05
65374;SHT31;52070;53.760;9.678;2023-01-09T01:43:25;4.68;94.10
65374;SHT31;52070;53.760;9.678;2023-01-09T01:45:52;4.62;94.17
65374;SHT31;52070;53.760;9.678;2023-01-09T01:48:21;4.61;94.16
65374;SHT31;52070;53.760;9.678;2023-01-09T01:50:52;4.62;94.12
65374;SHT31;52070;53.760;9.678;2023-01-09T01:53:22;4.76;94.21
65374;SHT31;52070;53.760;9.678;2023-01-09T01:55:57;4.86;94.28
65374;SHT31;52070;53.760;9.678;2023-01-09T01:58:30;4.93;94.32
65374;SHT31;52070;53.760;9.678;2023-01-09T02:00:57;4.95;94.36
65374;SHT31;52070;53.760;9.678;2023-01-09T02:03:26;5.04;94.31
65374;SHT31;52070;53.760;9.678;2023-01-09T02:05:54;5.04;94.27
65374;SHT31;52070;53.760;9.678;2023-01-09T02:08:21;5.13;94.26
65374;SHT31;52070;53.760;9.678;2023-01-09T02:10:48;5.27;94.22
65374;SHT31;52070;53.760;9.678;2023-01-09T02:13:16;5.32;94.10
65374;SHT31;52070;53.760;9.678;2023-01-09T02:16:00;5.40;93.94
65374;SHT31;52070;53.760;9.678;2023-01-09T02:18:45;5.43;93.84
65374;SHT31;52070;53.760;9.678;2023-01-09T02:21:21;5.56;93.75
65374;SHT31;52070;53.760;9.678;2023-01-09T02:24:15;5.57;93.62
65374;SHT31;52070;53.760;9.678;2023-01-09T02:26:56;5.63;93.46
65374;SHT31;52070;53.760;9.678;2023-01-09T02:30:15;5.69;93.31
65374;SHT31;52070;53.760;9.678;2023-01-09T02:33:08;5.75;93.19
65374;SHT31;52070;53.760;9.678;2023-01-09T02:36:00;5.91;92.93
65374;SHT31;52070;53.760;9.678;2023-01-09T02:38:34;5.95;92.64
65374;SHT31;52070;53.760;9.678;2023-01-09T02:41:10;5.95;92.31
65374;SHT31;52070;53.760;9.678;2023-01-09T02:43:39;5.98;92.14
65374;SHT31;52070;53.760;9.678;2023-01-09T02:46:16;5.97;92.04
65374;SHT31;52070;53.760;9.678;2023-01-09T02:48:45;6.01;91.97
65374;SHT31;52070;53.760;9.678;2023-01-09T02:51:17;6.07;91.87
65374;SHT31;52070;53.760;9.678;2023-01-09T02:54:06;6.05;91.74
65374;SHT31;52070;53.760;9.678;2023-01-09T02:56:52;6.20;91.60
65374;SHT31;52070;53.760;9.678;2023-01-09T02:59:26;6.20;91.35
65374;SHT31;52070;53.760;9.678;2023-01-09T03:02:20;6.22;91.14
65374;SHT31;52070;53.760;9.678;2023-01-09T03:04:58;6.26;91.11
65374;SHT31;52070;53.760;9.678;2023-01-09T03:07:33;6.24;91.02
65374;SHT31;52070;53.760;9.678;2023-01-09T03:10:07;6.31;90.93
65374;SHT31;52070;53.760;9.678;2023-01-09T03:12:35;6.22;90.96
65374;SHT31;52070;53.760;9.678;2023-01-09T03:15:06;6.35;90.87
65374;SHT31;52070;53.760;9.678;2023-01-09T03:17:37;6.34;90.88
65374;SHT31;52070;53.760;9.678;2023-01-09T03:20:08;6.42;90.83
65374;SHT31;52070;53.760;9.678;2023-01-09T03:22:38;6.44;90.71
65374;SHT31;52070;53.760;9.678;2023-01-09T03:25:05;6.48;90.60
65374;SHT31;52070;53.760;9.678;2023-01-09T03:27:32;6.48;90.55
65374;SHT31;52070;53.760;9.678;2023-01-09T03:29:59;6.52;90.46
65374;SHT31;52070;53.760;9.678;2023-01-09T03:32:26;6.53;90.62
65374;SHT31;52070;53.760;9.678;2023-01-09T03:34:55;6.55;90.72
65374;SHT31;52070;53.760;9.678;2023-01-09T03:37:22;6.56;90.86
65374;SHT31;52070;53.760;9.678;2023-01-09T03:39:49;6.56;91.05
65374;SHT31;52070;53.760;9.678;2023-01-09T03:42:16;6.49;91.28
65374;SHT31;52070;53.760;9.678;2023-01-09T03:44:43;6.49;91.49
65374;SHT31;52070;53.760;9.678;2023-01-09T03:47:10;6.52;91.76
65374;SHT31;52070;53.760;9.678;2023-01-09T03:49:37;6.55;91.99
65374;SHT31;52070;53.760;9.678;2023-01-09T03:52:05;6.50;92.11
65374;SHT31;52070;53.760;9.678;2023-01-09T03:54:32;6.56;92.33
65374;SHT31;52070;53.760;9.678;2023-01-09T03:56:59;6.64;92.49
65374;SHT31;52070;53.760;9.678;2023-01-09T03:59:26;6.62;92.57
65374;SHT31;52070;53.760;9.678;2023-01-09T04:01:53;6.57;92.68
65374;SHT31;52070;53.760;9.678;2023-01-09T04:04:20;6.66;92.87
65374;SHT31;52070;53.760;9.678;2023-01-09T04:06:47;6.66;92.98
65374;SHT31;52070;53.760;9.678;2023-01-09T04:09:15;6.69;93.02
65374;SHT31;52070;53.760;9.678;2023-01-09T04:11:42;6.71;93.13
65374;SHT31;52070;53.760;9.678;2023-01-09T04:14:09;6.69;93.16
65374;SHT31;52070;53.760;9.678;2023-01-09T04:16:36;6.75;93.20
65374;SHT31;52070;53.760;9.678;2023-01-09T04:19:03;6.71;93.20
65374;SHT31;52070;53.760;9.678;2023-01-09T04:21:30;6.65;93.22
65374;SHT31;52070;53.760;9.678;2023-01-09T04:23:57;6.68;93.31
65374;SHT31;52070;53.760;9.678;2023-01-09T04:26:25;6.64;93.39
65374;SHT31;52070;53.760;9.678;2023-01-09T04:28:52;6.66;93.46
65374;SHT31;52070;53.760;9.678;2023-01-09T04:31:19;6.66;93.51
65374;SHT31;52070;53.760;9.678;2023-01-09T04:33:46;6.65;93.64
65374;SHT31;52070;53.760;9.678;2023-01-09T04:36:13;6.62;93.73
65374;SHT31;52070;53.760;9.678;2023-01-09T04:38:40;6.59;93.84
65374;SHT31;52070;53.760;9.678;2023-01-09T04:41:07;6.59;93.94
65374;SHT31;52070;53.760;9.678;2023-01-09T04:43:35;6.59;94.03
65374;SHT31;52070;53.760;9.678;2023-01-09T04:46:02;6.55;94.10
65374;SHT31;52070;53.760;9.678;2023-01-09T04:48:29;6.55;94.15
65374;SHT31;52070;53.760;9.678;2023-01-09T04:50:56;6.55;94.20
65374;SHT31;52070;53.760;9.678;2023-01-09T04:53:23;6.55;94.28
65374;SHT31;52070;53.760;9.678;2023-01-09T04:55:50;6.57;94.40
65374;SHT31;52070;53.760;9.678;2023-01-09T04:58:17;6.55;94.48
65374;SHT31;52070;53.760;9.678;2023-01-09T05:00:45;6.55;94.51
65374;SHT31;52070;53.760;9.678;2023-01-09T05:03:12;6.53;94.55
65374;SHT31;52070;53.760;9.678;2023-01-09T05:05:39;6.52;94.57
65374;SHT31;52070;53.760;9.678;2023-01-09T05:08:06;6.59;94.43
65374;SHT31;52070;53.760;9.678;2023-01-09T05:10:33;6.57;94.30
65374;SHT31;52070;53.760;9.678;2023-01-09T05:13:00;6.56;94.22
65374;SHT31;52070;53.760;9.678;2023-01-09T05:15:27;6.52;94.10
65374;SHT31;52070;53.760;9.678;2023-01-09T05:17:56;6.53;94.05
65374;SHT31;52070;53.760;9.678;2023-01-09T05:20:23;6.46;94.01
65374;SHT31;52070;53.760;9.678;2023-01-09T05:22:50;6.46;94.01
65374;SHT31;52070;53.760;9.678;2023-01-09T05:25:17;6.48;93.98
65374;SHT31;52070;53.760;9.678;2023-01-09T05:27:44;6.46;93.97
65374;SHT31;52070;53.760;9.678;2023-01-09T05:30:12;6.46;93.91
65374;SHT31;52070;53.760;9.678;2023-01-09T05:32:39;6.45;93.91
65374;SHT31;52070;53.760;9.678;2023-01-09T05:35:08;6.45;93.89
65374;SHT31;52070;53.760;9.678;2023-01-09T05:37:35;6.44;93.87
65374;SHT31;52070;53.760;9.678;2023-01-09T05:40:02;6.42;93.89
65374;SHT31;52070;53.760;9.678;2023-01-09T05:42:29;6.44;93.88
65374;SHT31;52070;53.760;9.678;2023-01-09T05:44:56;6.42;93.92
65374;SHT31;52070;53.760;9.678;2023-01-09T05:47:23;6.42;93.97
65374;SHT31;52070;53.760;9.678;2023-01-09T05:49:50;6.35;94.07
65374;SHT31;52070;53.760;9.678;2023-01-09T05:52:19;6.32;94.12
65374;SHT31;52070;53.760;9.678;2023-01-09T05:54:46;6.34;94.21
65374;SHT31;52070;53.760;9.678;2023-01-09T05:57:13;6.34;94.28
65374;SHT31;52070;53.760;9.678;2023-01-09T05:59:40;6.29;94.32
65374;SHT31;52070;53.760;9.678;2023-01-09T06:02:07;6.26;94.37
65374;SHT31;52070;53.760;9.678;2023-01-09T06:04:34;6.26;94.50
65374;SHT31;52070;53.760;9.678;2023-01-09T06:07:01;6.25;94.56
65374;SHT31;52070;53.760;9.678;2023-01-09T06:09:29;6.31;94.61
65374;SHT31;52070;53.760;9.678;2023-01-09T06:11:57;6.28;94.70
65374;SHT31;52070;53.760;9.678;2023-01-09T06:14:24;6.28;94.74
65374;SHT31;52070;53.760;9.678;2023-01-09T06:16:51;6.32;94.75
65374;SHT31;52070;53.760;9.678;2023-01-09T06:19:18;6.34;94.76
65374;SHT31;52070;53.760;9.678;2023-01-09T06:21:45;6.29;94.77
65374;SHT31;52070;53.760;9.678;2023-01-09T06:24:11;6.28;94.77
65374;SHT31;52070;53.760;9.678;2023-01-09T06:26:40;6.28;94.80
65374;SHT31;52070;53.760;9.678;2023-01-09T06:29:07;6.28;94.82
65374;SHT31;52070;53.760;9.678;2023-01-09T06:31:34;6.29;94.84
65374;SHT31;52070;53.760;9.678;2023-01-09T06:34:01;6.32;94.90
65374;SHT31;52070;53.760;9.678;2023-01-09T06:36:28;6.32;94.92
65374;SHT31;52070;53.760;9.678;2023-01-09T06:38:55;6.35;94.95
65374;SHT31;52070;53.760;9.678;2023-01-09T06:41:22;6.34;95.01
65374;SHT31;52070;53.760;9.678;2023-01-09T06:43:50;6.31;95.01
65374;SHT31;52070;53.760;9.678;2023-01-09T06:46:17;6.29;95.03
65374;SHT31;52070;53.760;9.678;2023-01-09T06:48:44;6.32;95.00
65374;SHT31;52070;53.760;9.678;2023-01-09T06:51:11;6.29;95.01
65374;SHT31;52070;53.760;9.678;2023-01-09T06:53:38;6.35;95.01
65374;SHT31;52070;53.760;9.678;2023-01-09T06:56:05;6.31;95.04
65374;SHT31;52070;53.760;9.678;2023-01-09T06:58:32;6.39;95.00
65374;SHT31;52070;53.760;9.678;2023-01-09T07:01:01;6.44;95.02
65374;SHT31;52070;53.760;9.678;2023-01-09T07:03:27;6.39;94.99
65374;SHT31;52070;53.760;9.678;2023-01-09T07:05:55;6.31;94.90
65374;SHT31;52070;53.760;9.678;2023-01-09T07:08:22;6.32;94.86
65374;SHT31;52070;53.760;9.678;2023-01-09T07:10:49;6.28;94.91
65374;SHT31;52070;53.760;9.678;2023-01-09T07:13:16;6.31;94.90
65374;SHT31;52070;53.760;9.678;2023-01-09T07:15:43;6.34;94.95
65374;SHT31;52070;53.760;9.678;2023-01-09T07:18:11;6.31;94.97
65374;SHT31;52070;53.760;9.678;2023-01-09T07:20:38;6.35;95.00
65374;SHT31;52070;53.760;9.678;2023-01-09T07:23:06;6.36;95.02
65374;SHT31;52070;53.760;9.678;2023-01-09T07:25:33;6.39;95.09
65374;SHT31;52070;53.760;9.678;2023-01-09T07:28:00;6.36;95.09
65374;SHT31;52070;53.760;9.678;2023-01-09T07:30:27;6.39;95.12
65374;SHT31;52070;53.760;9.678;2023-01-09T07:32:54;6.34;95.11
65374;SHT31;52070;53.760;9.678;2023-01-09T07:35:22;6.38;95.12
65374;SHT31;52070;53.760;9.678;2023-01-09T07:37:49;6.42;95.12
65374;SHT31;52070;53.760;9.678;2023-01-09T07:40:16;6.35;95.12
65374;SHT31;52070;53.760;9.678;2023-01-09T07:42:43;6.29;95.10
65374;SHT31;52070;53.760;9.678;2023-01-09T07:45:10;6.32;95.07
65374;SHT31;52070;53.760;9.678;2023-01-09T07:47:38;6.26;95.07
65374;SHT31;52070;53.760;9.678;2023-01-09T07:50:06;6.24;95.04
65374;SHT31;52070;53.760;9.678;2023-01-09T07:52:35;6.22;94.94
65374;SHT31;52070;53.760;9.678;2023-01-09T07:55:02;6.17;95.01
65374;SHT31;52070;53.760;9.678;2023-01-09T07:57:29;6.14;95.02
65374;SHT31;52070;53.760;9.678;2023-01-09T07:59:56;6.12;95.00
65374;SHT31;52070;53.760;9.678;2023-01-09T08:02:25;6.11;95.05
65374;SHT31;52070;53.760;9.678;2023-01-09T08:04:52;6.07;95.07
65374;SHT31;52070;53.760;9.678;2023-01-09T08:07:19;6.02;95.08
65374;SHT31;52070;53.760;9.678;2023-01-09T08:09:47;6.01;95.09
65374;SHT31;52070;53.760;9.678;2023-01-09T08:12:14;5.97;95.09
65374;SHT31;52070;53.760;9.678;2023-01-09T08:14:41;5.97;95.09
65374;SHT31;52070;53.760;9.678;2023-01-09T08:17:08;5.90;95.08
65374;SHT31;52070;53.760;9.678;2023-01-09T08:19:36;5.89;95.02
65374;SHT31;52070;53.760;9.678;2023-01-09T08:22:03;5.87;95.01
65374;SHT31;52070;53.760;9.678;2023-01-09T08:24:30;5.83;94.93
65374;SHT31;52070;53.760;9.678;2023-01-09T08:26:58;5.84;94.91
65374;SHT31;52070;53.760;9.678;2023-01-09T08:29:25;5.78;94.88
65374;SHT31;52070;53.760;9.678;2023-01-09T08:31:53;5.77;94.85
65374;SHT31;52070;53.760;9.678;2023-01-09T08:34:20;5.78;94.82
65374;SHT31;52070;53.760;9.678;2023-01-09T08:36:47;5.80;94.80
65374;SHT31;52070;53.760;9.678;2023-01-09T08:39:14;5.78;94.77
65374;SHT31;52070;53.760;9.678;2023-01-09T08:41:41;5.87;94.76
65374;SHT31;52070;53.760;9.678;2023-01-09T08:44:27;5.81;94.78
65374;SHT31;52070;53.760;9.678;2023-01-09T08:47:12;5.84;94.73
65374;SHT31;52070;53.760;9.678;2023-01-09T08:49:40;5.86;94.71
65374;SHT31;52070;53.760;9.678;2023-01-09T08:52:07;5.81;94.69
65374;SHT31;52070;53.760;9.678;2023-01-09T08:54:34;5.81;94.70
65374;SHT31;52070;53.760;9.678;2023-01-09T08:57:03;5.84;94.74
65374;SHT31;52070;53.760;9.678;2023-01-09T08:59:32;5.87;94.77
65374;SHT31;52070;53.760;9.678;2023-01-09T09:01:59;5.86;94.79
65374;SHT31;52070;53.760;9.678;2023-01-09T09:04:26;5.84;94.72
65374;SHT31;52070;53.760;9.678;2023-01-09T09:06:53;5.84;94.69
65374;SHT31;52070;53.760;9.678;2023-01-09T09:09:20;5.91;94.70
65374;SHT31;52070;53.760;9.678;2023-01-09T09:11:47;5.89;94.65
65374;SHT31;52070;53.760;9.678;2023-01-09T09:14:14;5.90;94.58
65374;SHT31;52070;53.760;9.678;2023-01-09T09:17:00;5.97;94.48
65374;SHT31;52070;53.760;9.678;2023-01-09T09:19:27;5.97;94.41
65374;SHT31;52070;53.760;9.678;2023-01-09T09:21:54;5.97;94.29
65374;SHT31;52070;53.760;9.678;2023-01-09T09:24:21;6.00;94.23
65374;SHT31;52070;53.760;9.678;2023-01-09T09:26:48;6.02;94.09
65374;SHT31;52070;53.760;9.678;2023-01-09T09:29:15;6.07;93.93
65374;SHT31;52070;53.760;9.678;2023-01-09T09:31:42;6.08;93.74
65374;SHT31;52070;53.760;9.678;2023-01-09T09:34:10;6.10;93.58
65374;SHT31;52070;53.760;9.678;2023-01-09T09:36:38;6.07;93.48
65374;SHT31;52070;53.760;9.678;2023-01-09T09:39:04;6.08;93.30
65374;SHT31;52070;53.760;9.678;2023-01-09T09:41:46;6.01;93.31
65374;SHT31;52070;53.760;9.678;2023-01-09T09:44:49;6.01;93.14
65374;SHT31;52070;53.760;9.678;2023-01-09T09:47:28;5.95;92.85
65374;SHT31;52070;53.760;9.678;2023-01-09T09:50:05;5.98;92.82
65374;SHT31;52070;53.760;9.678;2023-01-09T09:52:42;5.98;92.85
65374;SHT31;52070;53.760;9.678;2023-01-09T09:55:16;5.97;93.05
65374;SHT31;52070;53.760;9.678;2023-01-09T09:57:45;6.01;92.99
65374;SHT31;52070;53.760;9.678;2023-01-09T10:00:18;6.02;92.99
65374;SHT31;52070;53.760;9.678;2023-01-09T10:02:47;6.01;92.91
65374;SHT31;52070;53.760;9.678;2023-01-09T10:05:23;6.01;92.98
65374;SHT31;52070;53.760;9.678;2023-01-09T10:07:51;6.07;93.00
65374;SHT31;52070;53.760;9.678;2023-01-09T10:10:26;6.02;92.80
65374;SHT31;52070;53.760;9.678;2023-01-09T10:12:57;5.98;92.62
65374;SHT31;52070;53.760;9.678;2023-01-09T10:15:34;6.02;92.68
65374;SHT31;52070;53.760;9.678;2023-01-09T10:18:13;6.05;92.70
65374;SHT31;52070;53.760;9.678;2023-01-09T10:20:55;6.07;92.75
65374;SHT31;52070;53.760;9.678;2023-01-09T10:23:57;6.02;92.83
65374;SHT31;52070;53.760;9.678;2023-01-09T10:26:32;6.04;92.84
65374;SHT31;52070;53.760;9.678;2023-01-09T10:29:16;6.00;92.37
65374;SHT31;52070;53.760;9.678;2023-01-09T10:31:56;5.98;92.24
65374;SHT31;52070;53.760;9.678;2023-01-09T10:34:35;5.94;91.75
65374;SHT31;52070;53.760;9.678;2023-01-09T10:37:10;5.94;91.50
65374;SHT31;52070;53.760;9.678;2023-01-09T10:39:42;5.94;91.44
65374;SHT31;52070;53.760;9.678;2023-01-09T10:42:17;5.94;91.29
65374;SHT31;52070;53.760;9.678;2023-01-09T10:44:52;5.97;91.49
65374;SHT31;52070;53.760;9.678;2023-01-09T10:47:24;5.97;91.79
65374;SHT31;52070;53.760;9.678;2023-01-09T10:49:52;5.97;91.62
65374;SHT31;52070;53.760;9.678;2023-01-09T10:52:27;6.01;91.51
65374;SHT31;52070;53.760;9.678;2023-01-09T10:54:58;6.01;91.57
65374;SHT31;52070;53.760;9.678;2023-01-09T10:57:30;6.05;91.44
65374;SHT31;52070;53.760;9.678;2023-01-09T10:59:59;6.08;91.29
65374;SHT31;52070;53.760;9.678;2023-01-09T11:02:29;6.08;91.13
65374;SHT31;52070;53.760;9.678;2023-01-09T11:04:56;6.11;91.17
65374;SHT31;52070;53.760;9.678;2023-01-09T11:07:27;6.12;91.07
65374;SHT31;52070;53.760;9.678;2023-01-09T11:09:57;6.18;91.08
65374;SHT31;52070;53.760;9.678;2023-01-09T11:12:25;6.20;91.07
65374;SHT31;52070;53.760;9.678;2023-01-09T11:14:53;6.21;91.03
65374;SHT31;52070;53.760;9.678;2023-01-09T11:17:21;6.21;90.50
65374;SHT31;52070;53.760;9.678;2023-01-09T11:20:02;6.22;90.44
65374;SHT31;52070;53.760;9.678;2023-01-09T11:22:41;6.24;89.80
65374;SHT31;52070;53.760;9.678;2023-01-09T11:25:11;6.25;89.68
65374;SHT31;52070;53.760;9.678;2023-01-09T11:27:38;6.29;89.58
65374;SHT31;52070;53.760;9.678;2023-01-09T11:30:19;6.35;89.30
65374;SHT31;52070;53.760;9.678;2023-01-09T11:32:48;6.39;89.64
65374;SHT31;52070;53.760;9.678;2023-01-09T11:35:27;6.62;89.77
65374;SHT31;52070;53.760;9.678;2023-01-09T11:38:01;6.69;89.00
65374;SHT31;52070;53.760;9.678;2023-01-09T11:40:32;6.72;88.65
65374;SHT31;52070;53.760;9.678;2023-01-09T11:43:10;6.82;88.54
65374;SHT31;52070;53.760;9.678;2023-01-09T11:45:43;6.76;88.14
65374;SHT31;52070;53.760;9.678;2023-01-09T11:48:25;6.80;88.21
65374;SHT31;52070;53.760;9.678;2023-01-09T11:50:55;6.93;88.46
65374;SHT31;52070;53.760;9.678;2023-01-09T11:53:24;7.03;88.23
65374;SHT31;52070;53.760;9.678;2023-01-09T11:55:57;7.03;88.30
65374;SHT31;52070;53.760;9.678;2023-01-09T11:58:27;7.00;88.53
65374;SHT31;52070;53.760;9.678;2023-01-09T12:01:03;7.04;88.02
65374;SHT31;52070;53.760;9.678;2023-01-09T12:03:46;7.04;87.84
65374;SHT31;52070;53.760;9.678;2023-01-09T12:06:26;6.97;87.66
65374;SHT31;52070;53.760;9.678;2023-01-09T12:08:58;7.03;87.75
65374;SHT31;52070;53.760;9.678;2023-01-09T12:11:32;7.04;87.86
65374;SHT31;52070;53.760;9.678;2023-01-09T12:14:13;7.07;87.53
65374;SHT31;52070;53.760;9.678;2023-01-09T12:16:52;7.13;87.94
65374;SHT31;52070;53.760;9.678;2023-01-09T12:19:40;7.10;87.51
65374;SHT31;52070;53.760;9.678;2023-01-09T12:22:16;7.13;87.91
65374;SHT31;52070;53.760;9.678;2023-01-09T12:25:05;7.11;87.98
65374;SHT31;52070;53.760;9.678;2023-01-09T12:27:47;7.16;88.15
65374;SHT31;52070;53.760;9.678;2023-01-09T12:30:26;7.13;87.73
65374;SHT31;52070;53.760;9.678;2023-01-09T12:33:11;7.14;87.91
65374;SHT31;52070;53.760;9.678;2023-01-09T12:35:44;7.14;87.77
65374;SHT31;52070;53.760;9.678;2023-01-09T12:38:18;7.13;88.03
65374;SHT31;52070;53.760;9.678;2023-01-09T12:41:07;7.11;87.57
65374;SHT31;52070;53.760;9.678;2023-01-09T12:43:47;7.14;87.78
65374;SHT31;52070;53.760;9.678;2023-01-09T12:46:19;7.16;87.84
65374;SHT31;52070;53.760;9.678;2023-01-09T12:49:02;7.16;87.69
65374;SHT31;52070;53.760;9.678;2023-01-09T12:51:34;7.17;87.79
65374;SHT31;52070;53.760;9.678;2023-01-09T12:54:08;7.17;87.67
65374;SHT31;52070;53.760;9.678;2023-01-09T12:56:39;7.10;87.61
65374;SHT31;52070;53.760;9.678;2023-01-09T12:59:20;7.20;87.98
65374;SHT31;52070;53.760;9.678;2023-01-09T13:01:59;7.31;88.31
65374;SHT31;52070;53.760;9.678;2023-01-09T13:04:30;7.40;88.41
65374;SHT31;52070;53.760;9.678;2023-01-09T13:07:04;7.48;87.82
65374;SHT31;52070;53.760;9.678;2023-01-09T13:09:38;7.44;87.67
65374;SHT31;52070;53.760;9.678;2023-01-09T13:12:12;7.43;87.50
65374;SHT31;52070;53.760;9.678;2023-01-09T13:14:46;7.47;87.71
65374;SHT31;52070;53.760;9.678;2023-01-09T13:17:18;7.35;87.16
65374;SHT31;52070;53.760;9.678;2023-01-09T13:19:46;7.38;87.15
65374;SHT31;52070;53.760;9.678;2023-01-09T13:22:14;7.38;87.35
65374;SHT31;52070;53.760;9.678;2023-01-09T13:25:14;7.40;87.64
65374;SHT31;52070;53.760;9.678;2023-01-09T13:27:50;7.43;87.21
65374;SHT31;52070;53.760;9.678;2023-01-09T13:30:31;7.35;87.58
65374;SHT31;52070;53.760;9.678;2023-01-09T13:33:07;7.32;87.80
65374;SHT31;52070;53.760;9.678;2023-01-09T13:35:46;7.27;88.05
65374;SHT31;52070;53.760;9.678;2023-01-09T13:38:16;7.26;88.34
65374;SHT31;52070;53.760;9.678;2023-01-09T13:40:44;7.26;88.38
65374;SHT31;52070;53.760;9.678;2023-01-09T13:43:12;7.28;88.70
65374;SHT31;52070;53.760;9.678;2023-01-09T13:45:42;7.30;88.34
65374;SHT31;52070;53.760;9.678;2023-01-09T13:48:23;7.34;88.34
65374;SHT31;52070;53.760;9.678;2023-01-09T13:50:50;7.40;88.44
65374;SHT31;52070;53.760;9.678;2023-01-09T13:53:45;7.47;88.49
65374;SHT31;52070;53.760;9.678;2023-01-09T13:56:12;7.52;88.21
65374;SHT31;52070;53.760;9.678;2023-01-09T13:58:58;7.51;87.87
65374;SHT31;52070;53.760;9.678;2023-01-09T14:01:41;7.50;87.98
65374;SHT31;52070;53.760;9.678;2023-01-09T14:04:41;7.40;88.00
65374;SHT31;52070;53.760;9.678;2023-01-09T14:07:19;7.38;88.36
65374;SHT31;52070;53.760;9.678;2023-01-09T14:09:51;7.44;87.89
65374;SHT31;52070;53.760;9.678;2023-01-09T14:12:19;7.38;87.80
65374;SHT31;52070;53.760;9.678;2023-01-09T14:14:50;7.34;88.10
65374;SHT31;52070;53.760;9.678;2023-01-09T14:17:25;7.28;88.41
65374;SHT31;52070;53.760;9.678;2023-01-09T14:19:55;7.20;88.36
65374;SHT31;52070;53.760;9.678;2023-01-09T14:22:24;7.20;88.78
65374;SHT31;52070;53.760;9.678;2023-01-09T14:24:52;7.19;88.95
65374;SHT31;52070;53.760;9.678;2023-01-09T14:30:36;7.19;89.53
65374;SHT31;52070;53.760;9.678;2023-01-09T14:33:24;7.17;89.65
65374;SHT31;52070;53.760;9.678;2023-01-09T14:35:54;7.17;89.62
65374;SHT31;52070;53.760;9.678;2023-01-09T14:38:29;7.10;89.72
65374;SHT31;52070;53.760;9.678;2023-01-09T14:41:00;7.23;89.74
65374;SHT31;52070;53.760;9.678;2023-01-09T14:43:50;7.30;89.82
65374;SHT31;52070;53.760;9.678;2023-01-09T14:46:19;7.32;89.62
65374;SHT31;52070;53.760;9.678;2023-01-09T14:48:59;7.20;89.74
65374;SHT31;52070;53.760;9.678;2023-01-09T14:51:30;7.16;90.13
65374;SHT31;52070;53.760;9.678;2023-01-09T14:53:57;7.35;89.97
65374;SHT31;52070;53.760;9.678;2023-01-09T14:56:28;7.31;89.77
65374;SHT31;52070;53.760;9.678;2023-01-09T14:59:03;7.27;89.94
65374;SHT31;52070;53.760;9.678;2023-01-09T15:01:33;7.30;89.64
65374;SHT31;52070;53.760;9.678;2023-01-09T15:04:03;7.17;89.84
65374;SHT31;52070;53.760;9.678;2023-01-09T15:06:34;7.14;90.11
65374;SHT31;52070;53.760;9.678;2023-01-09T15:09:04;7.13;90.26
65374;SHT31;52070;53.760;9.678;2023-01-09T15:11:36;7.14;90.03
65374;SHT31;52070;53.760;9.678;2023-01-09T15:14:04;7.23;89.80
65374;SHT31;52070;53.760;9.678;2023-01-09T15:16:33;7.10;89.74
65374;SHT31;52070;53.760;9.678;2023-01-09T15:19:02;7.00;90.03
65374;SHT31;52070;53.760;9.678;2023-01-09T15:21:30;6.93;90.29
65374;SHT31;52070;53.760;9.678;2023-01-09T15:24:10;6.87;90.49
65374;SHT31;52070;53.760;9.678;2023-01-09T15:26:38;6.89;90.72
65374;SHT31;52070;53.760;9.678;2023-01-09T15:29:12;6.93;90.79
65374;SHT31;52070;53.760;9.678;2023-01-09T15:31:43;6.90;90.69
65374;SHT31;52070;53.760;9.678;2023-01-09T15:34:11;6.90;90.78
65374;SHT31;52070;53.760;9.678;2023-01-09T15:36:41;6.89;90.72
65374;SHT31;52070;53.760;9.678;2023-01-09T15:39:08;6.82;90.81
65374;SHT31;52070;53.760;9.678;2023-01-09T15:41:35;6.82;90.97
65374;SHT31;52070;53.760;9.678;2023-01-09T15:44:23;6.75;91.09
65374;SHT31;52070;53.760;9.678;2023-01-09T15:46:55;6.73;91.21
65374;SHT31;52070;53.760;9.678;2023-01-09T15:49:23;6.75;91.23
65374;SHT31;52070;53.760;9.678;2023-01-09T15:51:50;6.68;91.21
65374;SHT31;52070;53.760;9.678;2023-01-09T15:54:24;6.66;91.25
65374;SHT31;52070;53.760;9.678;2023-01-09T15:56:53;6.66;91.33
65374;SHT31;52070;53.760;9.678;2023-01-09T15:59:24;6.69;91.35
65374;SHT31;52070;53.760;9.678;2023-01-09T16:01:58;6.66;91.32
65374;SHT31;52070;53.760;9.678;2023-01-09T16:04:40;6.65;91.36
65374;SHT31;52070;53.760;9.678;2023-01-09T16:07:11;6.65;91.44
65374;SHT31;52070;53.760;9.678;2023-01-09T16:09:42;6.68;91.45
65374;SHT31;52070;53.760;9.678;2023-01-09T16:12:16;6.71;91.37
65374;SHT31;52070;53.760;9.678;2023-01-09T16:14:49;6.66;91.28